オークランド の空港の天気 - METARとTAF

オークランド国際空港 ( NZAA / AKL ) - ニュージーランド オークランド|オークランド
飛行場実況気象(Metar)
観測時間02/21 04:00 NZDT (02/20 15:00 UTC)
風向・風速東 3m/s
視程10km以上
天気現象
少しの雲 雲底高度 1980m
気温17℃
湿度88%
気圧1024hPa
METARNZAA 201500Z AUTO 09005KT 9999 FEW065/// 17/15 Q1024 NOSIG
過去の天気等 Google飛行場航空写真 Wunderground天気予報

過去48時間のMETAR

飛行場予報(TAF)
発表時間: 2/21 00:08 NZDT (2/20 11:08 UTC)
予報対象時間: 21日1時 NZDT ~ 22日1時 NZDT
風向・風速東 3m/s
視程10km以上
なし
21日15時 NZDT ~ 21日17時 NZDT に徐々に
風向・風速北東 6m/s
21日20時 NZDT ~ 21日22時 NZDT に徐々に
風向・風速不定 1m/s
TAF NZAA 201108Z 2012/2112 10005KT CAVOK
BECMG 2102/2104 04012KT
BECMG 2107/2109 VRB02KT